Time;durP1;ratioP1;P1;durP2;ratioP2;P2;SDS_P1;SDS_P2;PMS_P1;PMS_P2;Temp;Humidity;BMP_temperature;BMP_pressure;BME280_temperature;BME280_humidity;BME280_pressure;Samples;Min_cycle;Max_cycle;Signal;HPM_P1;HPM_P2
2022/06/11 00:01:52;;;;;;;0.00;0.00;;;;;;;;;;4997217;28;20096;-79
2022/06/11 00:04:28;;;;;;;0.00;0.00;;;;;;;;;;4997494;28;20116;-79
2022/06/11 00:06:57;;;;;;;0.00;0.00;;;;;;;;;;5015112;28;20100;-79
2022/06/11 00:09:23;;;;;;;0.00;0.00;;;;;;;;;;5014980;28;20045;-79
2022/06/11 00:11:51;;;;;;;0.00;0.00;;;;;;;;;;4997282;28;20038;-79
2022/06/11 00:14:17;;;;;;;0.00;0.00;;;;;;;;;;5014565;28;20093;-79
2022/06/11 00:16:43;;;;;;;0.00;0.00;;;;;;;;;;4997431;28;20046;-79
2022/06/11 00:19:10;;;;;;;0.00;0.00;;;;;;;;;;4997004;28;20042;-79
2022/06/11 00:21:37;;;;;;;0.00;0.00;;;;;;;;;;4997127;28;20046;-79
2022/06/11 00:24:03;;;;;;;0.00;0.00;;;;;;;;;;5014546;28;20045;-79
2022/06/11 00:26:30;;;;;;;0.00;0.00;;;;;;;;;;4996963;28;20042;-79
2022/06/11 00:28:57;;;;;;;0.00;0.00;;;;;;;;;;5014682;28;20432;-79
2022/06/11 00:31:23;;;;;;;0.00;0.00;;;;;;;;;;4997080;28;20512;-79
2022/06/11 00:33:49;;;;;;;0.00;0.00;;;;;;;;;;4997092;28;20056;-79
2022/06/11 00:36:16;;;;;;;0.00;0.00;;;;;;;;;;4997023;28;20045;-79
2022/06/11 00:38:42;;;;;;;0.00;0.00;;;;;;;;;;4996647;28;20100;-79
2022/06/11 00:41:08;;;;;;;0.00;0.00;;;;;;;;;;4997155;28;20545;-79
2022/06/11 00:43:37;;;;;;;0.00;0.00;;;;;;;;;;4996516;28;20124;-79
2022/06/11 00:46:21;;;;;;;0.00;0.00;;;;;;;;;;4997118;28;20366;-79
2022/06/11 00:48:48;;;;;;;0.00;0.00;;;;;;;;;;5014192;28;20125;-80
2022/06/11 00:51:18;;;;;;;0.00;0.00;;;;;;;;;;4996627;28;20516;-79
2022/06/11 00:53:49;;;;;;;0.00;0.00;;;;;;;;;;4996692;28;20041;-79
2022/06/11 00:56:18;;;;;;;0.00;0.00;;;;;;;;;;5014444;28;20046;-79
2022/06/11 00:58:45;;;;;;;0.00;0.00;;;;;;;;;;4996695;28;20389;-79
2022/06/11 01:01:13;;;;;;;0.00;0.00;;;;;;;;;;4996977;28;20532;-79
2022/06/11 01:03:41;;;;;;;0.00;0.00;;;;;;;;;;4996370;28;20064;-79
2022/06/11 01:06:20;;;;;;;0.00;0.00;;;;;;;;;;4996505;28;20042;-79
2022/06/11 01:08:52;;;;;;;0.00;0.00;;;;;;;;;;5013847;28;20091;-79
2022/06/11 01:11:21;;;;;;;0.00;0.00;;;;;;;;;;5014007;28;20042;-79
2022/06/11 01:14:01;;;;;;;0.00;0.00;;;;;;;;;;4995181;28;20072;-79
2022/06/11 01:16:34;;;;;;;0.00;0.00;;;;;;;;;;5014073;28;20050;-79
2022/06/11 01:19:09;;;;;;;0.00;0.00;;;;;;;;;;5013807;28;20045;-79
2022/06/11 01:21:56;;;;;;;0.00;0.00;;;;;;;;;;4996566;28;20045;-79
2022/06/11 01:24:28;;;;;;;0.00;0.00;;;;;;;;;;4982530;28;20493;-79
2022/06/11 01:27:04;;;;;;;0.00;0.00;;;;;;;;;;5013840;28;20048;-79
2022/06/11 01:29:39;;;;;;;0.00;0.00;;;;;;;;;;4995813;28;20048;-79
2022/06/11 01:32:12;;;;;;;0.00;0.00;;;;;;;;;;4996037;28;20210;-79
2022/06/11 01:34:41;;;;;;;0.00;0.00;;;;;;;;;;4995934;28;20128;-79
2022/06/11 01:37:12;;;;;;;0.00;0.00;;;;;;;;;;5013690;28;20045;-79
2022/06/11 01:40:00;;;;;;;0.00;0.00;;;;;;;;;;5013602;28;20046;-79
2022/06/11 01:42:26;;;;;;;0.00;0.00;;;;;;;;;;4996079;28;20056;-79
2022/06/11 01:45:19;;;;;;;0.00;0.00;;;;;;;;;;4995562;28;20576;-79
2022/06/11 01:47:45;;;;;;;0.00;0.00;;;;;;;;;;4992384;28;20429;-79
2022/06/11 01:50:12;;;;;;;0.00;0.00;;;;;;;;;;4995820;28;20080;-79
2022/06/11 01:52:57;;;;;;;0.00;0.00;;;;;;;;;;4995794;28;20057;-79
2022/06/11 01:55:23;;;;;;;0.00;0.00;;;;;;;;;;4995389;28;20042;-79
2022/06/11 01:57:55;;;;;;;0.00;0.00;;;;;;;;;;4995684;28;20122;-79
2022/06/11 02:00:23;;;;;;;0.00;0.00;;;;;;;;;;4995712;28;20485;-79
2022/06/11 02:02:55;;;;;;;0.00;0.00;;;;;;;;;;5013351;28;20091;-79
2022/06/11 02:05:25;;;;;;;0.00;0.00;;;;;;;;;;4995341;28;20057;-79
2022/06/11 02:08:03;;;;;;;0.00;0.00;;;;;;;;;;4995610;28;20049;-80
2022/06/11 02:10:34;;;;;;;0.00;0.00;;;;;;;;;;5012749;28;20079;-79
2022/06/11 02:13:10;;;;;;;0.00;0.00;;;;;;;;;;4995565;28;20438;-79
2022/06/11 02:15:41;;;;;;;0.00;0.00;;;;;;;;;;4995051;28;20061;-79
2022/06/11 02:18:10;;;;;;;0.00;0.00;;;;;;;;;;5013335;28;20050;-80
2022/06/11 02:20:39;;;;;;;0.00;0.00;;;;;;;;;;5012846;28;20146;-79
2022/06/11 02:23:07;;;;;;;0.00;0.00;;;;;;;;;;5012936;28;20512;-79
2022/06/11 02:25:33;;;;;;;0.00;0.00;;;;;;;;;;4997358;28;20042;-79
2022/06/11 02:28:01;;;;;;;0.00;0.00;;;;;;;;;;4999374;28;20052;-79
2022/06/11 02:30:28;;;;;;;0.00;0.00;;;;;;;;;;4999154;28;20065;-80
2022/06/11 02:32:54;;;;;;;0.00;0.00;;;;;;;;;;4999636;28;20091;-79
2022/06/11 02:35:42;;;;;;;0.00;0.00;;;;;;;;;;4999164;28;20071;-79
2022/06/11 02:38:10;;;;;;;0.00;0.00;;;;;;;;;;4999469;28;20132;-79
2022/06/11 02:40:42;;;;;;;0.00;0.00;;;;;;;;;;4999395;28;20064;-79
2022/06/11 02:43:08;;;;;;;0.00;0.00;;;;;;;;;;4999243;28;20046;-79
2022/06/11 02:45:34;;;;;;;0.00;0.00;;;;;;;;;;4998738;28;20068;-79
2022/06/11 02:48:00;;;;;;;0.00;0.00;;;;;;;;;;4999167;28;20041;-80
2022/06/11 02:50:27;;;;;;;0.00;0.00;;;;;;;;;;4998643;28;20057;-79
2022/06/11 02:52:54;;;;;;;0.00;0.00;;;;;;;;;;5016767;28;20038;-79
2022/06/11 02:55:21;;;;;;;0.00;0.00;;;;;;;;;;5016403;28;20041;-79
2022/06/11 02:57:47;;;;;;;0.00;0.00;;;;;;;;;;4999090;28;20430;-79
2022/06/11 03:00:15;;;;;;;0.00;0.00;;;;;;;;;;4982252;28;20134;-79
2022/06/11 03:02:41;;;;;;;0.00;0.00;;;;;;;;;;5016233;28;20057;-79
2022/06/11 03:05:07;;;;;;;0.00;0.00;;;;;;;;;;5016177;28;20042;-79
2022/06/11 03:07:33;;;;;;;0.00;0.00;;;;;;;;;;5016229;28;20038;-79
2022/06/11 03:09:59;;;;;;;0.00;0.00;;;;;;;;;;4998334;28;20053;-79
2022/06/11 03:12:25;;;;;;;0.00;0.00;;;;;;;;;;4998564;28;20042;-79
2022/06/11 03:14:51;;;;;;;0.00;0.00;;;;;;;;;;4983767;28;20057;-80
2022/06/11 03:17:18;;;;;;;0.00;0.00;;;;;;;;;;4975531;28;20053;-80
2022/06/11 03:19:45;;;;;;;0.00;0.00;;;;;;;;;;4975668;28;20042;-80
2022/06/11 03:22:11;;;;;;;0.00;0.00;;;;;;;;;;4975592;28;20121;-79
2022/06/11 03:24:37;;;;;;;0.00;0.00;;;;;;;;;;4975784;28;20050;-79
2022/06/11 03:27:03;;;;;;;0.00;0.00;;;;;;;;;;4975691;28;20312;-79
2022/06/11 03:29:29;;;;;;;0.00;0.00;;;;;;;;;;4975742;28;20046;-79
2022/06/11 03:31:55;;;;;;;0.00;0.00;;;;;;;;;;4975564;28;20506;-79
2022/06/11 03:34:22;;;;;;;0.00;0.00;;;;;;;;;;4975378;28;20073;-79
2022/06/11 03:36:48;;;;;;;0.00;0.00;;;;;;;;;;4974221;28;20073;-79
2022/06/11 03:39:16;;;;;;;0.00;0.00;;;;;;;;;;4975387;28;20081;-79
2022/06/11 03:41:43;;;;;;;0.00;0.00;;;;;;;;;;4975218;28;20046;-79
2022/06/11 03:44:08;;;;;;;0.00;0.00;;;;;;;;;;4975237;28;20046;-79
2022/06/11 03:46:35;;;;;;;0.00;0.00;;;;;;;;;;4975293;28;20046;-79
2022/06/11 03:49:01;;;;;;;0.00;0.00;;;;;;;;;;4976511;28;20486;-79
2022/06/11 03:51:27;;;;;;;0.00;0.00;;;;;;;;;;4974866;28;20058;-79
2022/06/11 03:53:53;;;;;;;0.00;0.00;;;;;;;;;;4976468;28;20043;-79
2022/06/11 03:56:19;;;;;;;0.00;0.00;;;;;;;;;;4974962;28;20078;-80
2022/06/11 03:58:46;;;;;;;0.10;0.03;;;;;;;;;;4974970;28;20043;-80
2022/06/11 04:01:15;;;;;;;0.00;0.00;;;;;;;;;;4976291;28;20055;-80
2022/06/11 04:03:42;;;;;;;0.00;0.00;;;;;;;;;;4975290;28;20510;-80
2022/06/11 04:06:08;;;;;;;0.00;0.00;;;;;;;;;;4974770;28;20109;-80
2022/06/11 04:08:34;;;;;;;0.00;0.00;;;;;;;;;;4974885;28;20046;-80
2022/06/11 04:11:00;;;;;;;0.00;0.00;;;;;;;;;;4974691;28;20043;-80
2022/06/11 04:13:27;;;;;;;0.00;0.00;;;;;;;;;;4974637;28;20043;-80
2022/06/11 04:15:54;;;;;;;0.00;0.00;;;;;;;;;;4975959;28;20093;-80
2022/06/11 04:18:49;;;;;;;0.00;0.00;;;;;;;;;;4974592;28;20034;-80
2022/06/11 04:21:15;;;;;;;0.00;0.00;;;;;;;;;;4972908;28;20054;-80
2022/06/11 04:23:43;;;;;;;0.00;0.00;;;;;;;;;;4974415;28;20050;-80
2022/06/11 04:26:11;;;;;;;0.00;0.00;;;;;;;;;;4975803;28;20042;-79
2022/06/11 04:28:37;;;;;;;0.00;0.00;;;;;;;;;;4975739;28;20140;-79
2022/06/11 04:31:05;;;;;;;0.00;0.00;;;;;;;;;;4974121;28;20053;-80
2022/06/11 04:33:31;;;;;;;0.00;0.00;;;;;;;;;;4974377;28;20474;-80
2022/06/11 04:35:57;;;;;;;0.00;0.00;;;;;;;;;;4974342;28;20390;-80
2022/06/11 04:38:23;;;;;;;0.00;0.00;;;;;;;;;;4974181;28;20546;-80
2022/06/11 04:40:49;;;;;;;0.00;0.00;;;;;;;;;;4975477;28;20441;-79
2022/06/11 04:43:15;;;;;;;0.00;0.00;;;;;;;;;;4974505;28;20074;-80
2022/06/11 04:45:42;;;;;;;0.00;0.00;;;;;;;;;;4974357;28;20486;-80
2022/06/11 04:48:08;;;;;;;0.00;0.00;;;;;;;;;;4973840;28;20051;-80
2022/06/11 04:50:34;;;;;;;0.00;0.00;;;;;;;;;;4973952;28;20126;-80
2022/06/11 04:53:01;;;;;;;0.00;0.00;;;;;;;;;;4973792;28;20039;-80
2022/06/11 04:55:28;;;;;;;0.00;0.00;;;;;;;;;;4974211;28;20085;-80
2022/06/11 04:57:54;;;;;;;0.00;0.00;;;;;;;;;;4974995;28;20074;-80
2022/06/11 05:00:21;;;;;;;0.00;0.00;;;;;;;;;;4975190;28;20046;-80
2022/06/11 05:02:47;;;;;;;0.00;0.00;;;;;;;;;;4974834;28;20490;-80
2022/06/11 05:05:14;;;;;;;0.00;0.00;;;;;;;;;;4974876;28;20589;-80
2022/06/11 05:07:41;;;;;;;0.00;0.00;;;;;;;;;;4973439;28;20125;-80
2022/06/11 05:10:08;;;;;;;0.00;0.00;;;;;;;;;;4975088;28;20047;-80
2022/06/11 05:12:34;;;;;;;0.00;0.00;;;;;;;;;;4973646;28;20126;-80
2022/06/11 05:15:00;;;;;;;0.00;0.00;;;;;;;;;;4973433;28;20051;-80
2022/06/11 05:17:26;;;;;;;0.00;0.00;;;;;;;;;;4973377;28;20120;-80
2022/06/11 05:19:52;;;;;;;0.00;0.00;;;;;;;;;;4975020;28;20035;-80
2022/06/11 05:22:18;;;;;;;0.00;0.00;;;;;;;;;;4974757;28;20104;-80
2022/06/11 05:24:44;;;;;;;0.00;0.00;;;;;;;;;;4973369;28;20039;-80
2022/06/11 05:27:13;;;;;;;0.00;0.00;;;;;;;;;;4957367;28;20043;-80
2022/06/11 05:30:00;;;;;;;0.00;0.00;;;;;;;;;;4973368;28;20055;-79
2022/06/11 05:32:29;;;;;;;0.00;0.00;;;;;;;;;;4974609;28;20042;-80
2022/06/11 05:34:56;;;;;;;0.00;0.00;;;;;;;;;;4973568;28;20050;-79
2022/06/11 05:37:22;;;;;;;0.00;0.00;;;;;;;;;;4973099;28;20039;-80
2022/06/11 05:39:48;;;;;;;0.00;0.00;;;;;;;;;;4973427;28;20405;-80
2022/06/11 05:42:15;;;;;;;0.00;0.00;;;;;;;;;;4973284;28;20047;-79
2022/06/11 05:44:41;;;;;;;0.00;0.00;;;;;;;;;;4974491;28;20410;-79
2022/06/11 05:47:08;;;;;;;0.00;0.00;;;;;;;;;;4974101;28;20450;-80
2022/06/11 05:49:37;;;;;;;0.00;0.00;;;;;;;;;;4973433;28;20430;-79
2022/06/11 05:52:04;;;;;;;0.00;0.00;;;;;;;;;;4972868;28;20050;-79
2022/06/11 05:54:32;;;;;;;0.00;0.00;;;;;;;;;;4974434;28;20035;-79
2022/06/11 05:56:59;;;;;;;0.00;0.00;;;;;;;;;;4972858;28;20089;-80
2022/06/11 05:59:29;;;;;;;0.00;0.00;;;;;;;;;;4973580;28;20382;-79
2022/06/11 06:01:56;;;;;;;0.00;0.00;;;;;;;;;;4974273;28;20051;-80
2022/06/11 06:04:22;;;;;;;0.00;0.00;;;;;;;;;;4973079;28;20050;-80
2022/06/11 06:06:48;;;;;;;0.00;0.00;;;;;;;;;;4960949;28;20129;-82
2022/06/11 06:09:14;;;;;;;0.00;0.00;;;;;;;;;;4975999;28;20405;-80
2022/06/11 06:11:40;;;;;;;0.00;0.00;;;;;;;;;;4972833;28;20046;-80
2022/06/11 06:14:06;;;;;;;0.00;0.00;;;;;;;;;;4984159;28;20050;-80
2022/06/11 06:16:32;;;;;;;0.00;0.00;;;;;;;;;;5012948;28;20053;-80
2022/06/11 06:19:00;;;;;;;0.00;0.00;;;;;;;;;;4995186;28;20046;-80
2022/06/11 06:21:27;;;;;;;0.00;0.00;;;;;;;;;;5013435;28;20077;-80
2022/06/11 06:23:53;;;;;;;0.00;0.00;;;;;;;;;;4995179;28;20046;-84
2022/06/11 06:26:19;;;;;;;0.00;0.00;;;;;;;;;;5000428;28;20505;-81
2022/06/11 06:28:45;;;;;;;0.00;0.00;;;;;;;;;;5003130;28;20507;-78
2022/06/11 06:31:13;;;;;;;0.00;0.00;;;;;;;;;;5014824;28;20050;-80
2022/06/11 06:33:39;;;;;;;0.00;0.00;;;;;;;;;;5014582;28;20084;-79
2022/06/11 06:36:06;;;;;;;0.00;0.00;;;;;;;;;;5032784;28;20424;-77
2022/06/11 06:38:33;;;;;;;0.00;0.00;;;;;;;;;;5014533;28;20088;-77
2022/06/11 06:41:00;;;;;;;0.00;0.00;;;;;;;;;;5032511;28;20081;-78
2022/06/11 06:43:26;;;;;;;0.00;0.00;;;;;;;;;;5014469;28;20548;-79
2022/06/11 06:45:52;;;;;;;0.00;0.00;;;;;;;;;;5015160;28;20115;-79
2022/06/11 06:48:20;;;;;;;0.00;0.00;;;;;;;;;;5032533;28;20041;-79
2022/06/11 06:50:46;;;;;;;0.00;0.00;;;;;;;;;;5014872;28;20064;-78
2022/06/11 06:53:12;;;;;;;0.00;0.00;;;;;;;;;;5014822;28;20064;-79
2022/06/11 06:55:38;;;;;;;0.00;0.00;;;;;;;;;;5013231;28;20045;-78
2022/06/11 06:58:04;;;;;;;0.00;0.00;;;;;;;;;;5014401;28;20044;-78
2022/06/11 07:00:30;;;;;;;0.00;0.00;;;;;;;;;;5032378;28;20492;-78
2022/06/11 07:02:56;;;;;;;0.00;0.00;;;;;;;;;;4998155;28;20542;-78
2022/06/11 07:05:25;;;;;;;0.00;0.00;;;;;;;;;;5014723;28;20041;-79
2022/06/11 07:07:52;;;;;;;0.00;0.00;;;;;;;;;;4997913;28;20056;-78
2022/06/11 07:10:19;;;;;;;0.00;0.00;;;;;;;;;;5031968;28;22012;-78
2022/06/11 07:12:45;;;;;;;0.00;0.00;;;;;;;;;;5017851;28;20443;-78
2022/06/11 07:15:11;;;;;;;0.00;0.00;;;;;;;;;;5001665;28;20136;-78
2022/06/11 07:17:39;;;;;;;0.00;0.00;;;;;;;;;;5035818;28;20044;-78
2022/06/11 07:20:08;;;;;;;0.00;0.00;;;;;;;;;;5035863;28;20031;-78
2022/06/11 07:22:37;;;;;;;0.00;0.00;;;;;;;;;;5035559;28;20129;-78
2022/06/11 07:25:05;;;;;;;0.00;0.00;;;;;;;;;;5035798;28;20069;-78
2022/06/11 07:27:35;;;;;;;0.00;0.00;;;;;;;;;;5035781;28;20038;-78
2022/06/11 07:30:04;;;;;;;0.00;0.00;;;;;;;;;;5017716;28;20045;-78
2022/06/11 07:32:35;;;;;;;0.00;0.00;;;;;;;;;;5017971;28;20528;-78
2022/06/11 07:35:05;;;;;;;0.00;0.00;;;;;;;;;;5017618;28;20041;-79
2022/06/11 07:37:33;;;;;;;0.00;0.00;;;;;;;;;;5035470;28;20145;-78
2022/06/11 07:39:59;;;;;;;0.00;0.00;;;;;;;;;;5017435;28;20033;-79
2022/06/11 07:42:25;;;;;;;0.00;0.00;;;;;;;;;;5017641;28;20073;-79
2022/06/11 07:44:51;;;;;;;0.00;0.00;;;;;;;;;;5035326;28;20096;-79
2022/06/11 07:47:53;;;;;;;0.00;0.00;;;;;;;;;;5017683;28;20168;-79
2022/06/11 07:50:06;;;;;;;0.00;0.00;;;;;;;;;;5034606;28;20120;-79
2022/06/11 07:52:32;;;;;;;0.00;0.00;;;;;;;;;;5034012;28;20041;-79
2022/06/11 07:54:58;;;;;;;0.00;0.00;;;;;;;;;;5017422;28;20047;-79
2022/06/11 07:57:24;;;;;;;0.00;0.00;;;;;;;;;;5035251;28;20400;-79
2022/06/11 07:59:50;;;;;;;0.00;0.00;;;;;;;;;;5012526;28;20048;-81
2022/06/11 08:02:16;;;;;;;0.00;0.00;;;;;;;;;;5007453;28;20041;-81
2022/06/11 08:04:42;;;;;;;0.00;0.00;;;;;;;;;;4985859;28;20080;-80
2022/06/11 08:07:08;;;;;;;0.00;0.00;;;;;;;;;;5014865;28;20037;-79
2022/06/11 08:09:34;;;;;;;0.00;0.00;;;;;;;;;;4997202;28;20045;-80
2022/06/11 08:12:00;;;;;;;0.00;0.00;;;;;;;;;;4981118;28;20458;-80
2022/06/11 08:14:26;;;;;;;0.00;0.00;;;;;;;;;;4980738;28;20060;-80
2022/06/11 08:16:52;;;;;;;0.00;0.00;;;;;;;;;;4997430;28;20096;-80
2022/06/11 08:19:18;;;;;;;0.00;0.00;;;;;;;;;;5014705;28;20508;-80
2022/06/11 08:21:44;;;;;;;0.00;0.00;;;;;;;;;;4997127;28;20042;-80
2022/06/11 08:24:10;;;;;;;0.00;0.00;;;;;;;;;;5014235;28;20107;-81
2022/06/11 08:26:37;;;;;;;0.00;0.00;;;;;;;;;;5014881;28;20049;-81
2022/06/11 08:29:03;;;;;;;0.00;0.00;;;;;;;;;;4996752;28;20489;-80
2022/06/11 08:31:29;;;;;;;0.00;0.00;;;;;;;;;;4997105;28;20049;-81
2022/06/11 08:33:55;;;;;;;0.00;0.00;;;;;;;;;;5014205;28;20502;-79
2022/06/11 08:36:21;;;;;;;0.00;0.00;;;;;;;;;;4980870;28;20049;-81
2022/06/11 08:38:47;;;;;;;0.00;0.00;;;;;;;;;;4980472;28;20034;-80
2022/06/11 08:41:19;;;;;;;0.00;0.00;;;;;;;;;;4996878;28;20045;-80
2022/06/11 08:43:55;;;;;;;0.00;0.00;;;;;;;;;;4996660;28;20064;-80
2022/06/11 08:46:23;;;;;;;0.00;0.00;;;;;;;;;;4996762;28;20480;-80
2022/06/11 08:48:52;;;;;;;0.00;0.00;;;;;;;;;;5014297;28;20088;-81
2022/06/11 08:51:25;;;;;;;0.00;0.00;;;;;;;;;;4996686;28;20489;-80
2022/06/11 08:53:53;;;;;;;0.00;0.00;;;;;;;;;;4996457;28;20049;-80
2022/06/11 08:56:28;;;;;;;0.00;0.00;;;;;;;;;;5014149;28;20046;-80
2022/06/11 08:59:23;;;;;;;0.00;0.00;;;;;;;;;;4980116;28;20129;-80
2022/06/11 09:01:59;;;;;;;0.00;0.00;;;;;;;;;;4997704;28;20128;-82
2022/06/11 09:04:41;;;;;;;0.00;0.00;;;;;;;;;;5013925;28;20401;-82
2022/06/11 09:07:17;;;;;;;0.00;0.00;;;;;;;;;;4996599;28;20038;-81
2022/06/11 09:09:59;;;;;;;0.00;0.00;;;;;;;;;;5013897;28;20033;-81
2022/06/11 09:12:34;;;;;;;0.00;0.00;;;;;;;;;;4996177;28;20041;-81
2022/06/11 09:15:24;;;;;;;0.00;0.00;;;;;;;;;;4995757;28;20060;-81
2022/06/11 09:18:02;;;;;;;0.00;0.00;;;;;;;;;;4996189;28;20164;-81
2022/06/11 09:20:28;;;;;;;0.00;0.00;;;;;;;;;;5012503;28;20121;-81
2022/06/11 09:23:11;;;;;;;0.00;0.00;;;;;;;;;;4996063;28;20192;-81
2022/06/11 09:25:37;;;;;;;0.00;0.00;;;;;;;;;;4995788;28;20041;-81
2022/06/11 09:28:12;;;;;;;0.05;0.05;;;;;;;;;;4995884;28;20061;-81
2022/06/11 09:30:43;;;;;;;0.00;0.00;;;;;;;;;;4995762;28;20053;-81
2022/06/11 09:33:09;;;;;;;0.00;0.00;;;;;;;;;;4996030;28;20046;-81
2022/06/11 09:35:44;;;;;;;0.00;0.00;;;;;;;;;;4994778;28;20439;-81
2022/06/11 09:38:10;;;;;;;;;;;;;;;;;;4996487;28;20485;-81
2022/06/11 09:40:44;;;;;;;0.00;0.00;;;;;;;;;;4979710;28;20359;-82
2022/06/11 09:43:18;;;;;;;0.00;0.00;;;;;;;;;;4996127;28;20100;-82
2022/06/11 09:45:50;;;;;;;0.00;0.00;;;;;;;;;;4995600;28;20462;-81
2022/06/11 09:48:23;;;;;;;0.00;0.00;;;;;;;;;;4995723;28;20362;-82
2022/06/11 09:51:03;;;;;;;0.00;0.00;;;;;;;;;;4995331;28;20053;-81
2022/06/11 09:53:36;;;;;;;0.00;0.00;;;;;;;;;;5013196;28;20038;-81
2022/06/11 09:56:14;;;;;;;0.00;0.00;;;;;;;;;;5013175;28;20057;-81
2022/06/11 09:58:46;;;;;;;0.00;0.00;;;;;;;;;;5013390;28;20038;-81
2022/06/11 10:01:15;;;;;;;0.00;0.00;;;;;;;;;;4995533;28;20103;-81
2022/06/11 10:03:53;;;;;;;0.00;0.00;;;;;;;;;;4995474;28;20129;-82
2022/06/11 10:06:24;;;;;;;0.00;0.00;;;;;;;;;;4995307;28;20073;-82
2022/06/11 10:08:56;;;;;;;0.00;0.00;;;;;;;;;;4995693;28;20069;-82
2022/06/11 10:11:25;;;;;;;0.00;0.00;;;;;;;;;;4995262;28;20050;-81
2022/06/11 10:13:54;;;;;;;0.00;0.00;;;;;;;;;;4995523;28;20440;-82
2022/06/11 10:16:27;;;;;;;0.00;0.00;;;;;;;;;;4995211;28;20085;-81
2022/06/11 10:18:55;;;;;;;0.00;0.00;;;;;;;;;;4979247;28;20042;-81
2022/06/11 10:21:22;;;;;;;0.00;0.00;;;;;;;;;;4995168;28;20052;-81
2022/06/11 10:23:54;;;;;;;0.00;0.00;;;;;;;;;;4995373;28;20133;-81
2022/06/11 10:26:26;;;;;;;0.00;0.00;;;;;;;;;;4995316;28;20045;-81
2022/06/11 10:28:58;;;;;;;0.00;0.00;;;;;;;;;;4995484;28;20041;-82
2022/06/11 10:31:44;;;;;;;0.00;0.00;;;;;;;;;;5012459;28;20482;-83
2022/06/11 10:34:13;;;;;;;0.00;0.00;;;;;;;;;;4995017;28;20453;-81
2022/06/11 10:36:42;;;;;;;0.00;0.00;;;;;;;;;;4994886;28;20037;-81
2022/06/11 10:39:13;;;;;;;0.00;0.00;;;;;;;;;;5012908;28;20038;-81
2022/06/11 10:41:43;;;;;;;0.00;0.00;;;;;;;;;;4995201;28;20048;-81
2022/06/11 10:44:09;;;;;;;0.00;0.00;;;;;;;;;;4994882;28;20481;-81
2022/06/11 10:46:37;;;;;;;0.00;0.00;;;;;;;;;;4997049;28;20096;-81
2022/06/11 10:49:03;;;;;;;0.00;0.00;;;;;;;;;;4998820;28;20046;-81
2022/06/11 10:51:30;;;;;;;0.00;0.00;;;;;;;;;;4998687;28;20053;-81
2022/06/11 10:54:17;;;;;;;0.00;0.00;;;;;;;;;;4998653;28;20049;-81
2022/06/11 10:56:44;;;;;;;0.00;0.00;;;;;;;;;;4998913;28;20053;-81
2022/06/11 10:59:14;;;;;;;0.00;0.00;;;;;;;;;;5016419;28;20038;-82
2022/06/11 11:01:45;;;;;;;0.00;0.00;;;;;;;;;;5015929;28;20393;-81
2022/06/11 11:04:13;;;;;;;0.00;0.00;;;;;;;;;;5016237;28;20038;-82
2022/06/11 11:06:41;;;;;;;0.00;0.00;;;;;;;;;;4998393;28;20037;-81
2022/06/11 11:09:10;;;;;;;0.32;0.00;;;;;;;;;;4998829;28;20042;-82
2022/06/11 11:11:47;;;;;;;0.00;0.00;;;;;;;;;;5016077;28;20034;-81
2022/06/11 11:14:28;;;;;;;0.00;0.00;;;;;;;;;;5015718;28;20061;-82
2022/06/11 11:16:58;;;;;;;0.00;0.00;;;;;;;;;;4998314;28;20045;-81
2022/06/11 11:19:25;;;;;;;0.00;0.00;;;;;;;;;;5016192;28;20037;-82
2022/06/11 11:21:57;;;;;;;0.00;0.00;;;;;;;;;;4998173;28;20053;-80
2022/06/11 11:24:44;;;;;;;0.00;0.00;;;;;;;;;;4998336;28;20077;-83
2022/06/11 11:27:10;;;;;;;0.00;0.00;;;;;;;;;;4998190;28;20054;-80
2022/06/11 11:29:37;;;;;;;0.00;0.00;;;;;;;;;;4998342;28;20045;-79
2022/06/11 11:32:06;;;;;;;0.00;0.00;;;;;;;;;;4997998;28;20495;-79
2022/06/11 11:34:48;;;;;;;0.00;0.00;;;;;;;;;;4998320;28;20056;-79
2022/06/11 11:37:14;;;;;;;0.00;0.00;;;;;;;;;;4997858;28;20038;-80
2022/06/11 11:39:52;;;;;;;0.00;0.00;;;;;;;;;;4998483;28;20088;-80
2022/06/11 11:42:26;;;;;;;0.00;0.00;;;;;;;;;;4998135;28;20118;-80
2022/06/11 11:44:57;;;;;;;0.00;0.00;;;;;;;;;;5015314;28;20092;-79
2022/06/11 11:47:39;;;;;;;0.00;0.00;;;;;;;;;;4997836;28;20045;-79
2022/06/11 11:50:08;;;;;;;0.00;0.00;;;;;;;;;;4997819;28;20049;-80
2022/06/11 11:52:39;;;;;;;0.00;0.00;;;;;;;;;;4997911;28;20046;-79
2022/06/11 11:55:25;;;;;;;0.00;0.00;;;;;;;;;;4997959;28;20049;-80
2022/06/11 11:58:13;;;;;;;0.00;0.00;;;;;;;;;;4996874;28;20046;-80
2022/06/11 12:00:41;;;;;;;0.00;0.00;;;;;;;;;;5015244;28;20041;-80
2022/06/11 12:03:15;;;;;;;0.00;0.00;;;;;;;;;;5015158;28;20034;-81
2022/06/11 12:05:48;;;;;;;0.00;0.00;;;;;;;;;;4997289;28;20038;-80
2022/06/11 12:08:19;;;;;;;0.00;0.00;;;;;;;;;;4997719;28;20037;-80
2022/06/11 12:10:50;;;;;;;0.00;0.00;;;;;;;;;;4981203;28;20046;-80
2022/06/11 12:13:25;;;;;;;0.00;0.00;;;;;;;;;;5015451;28;20527;-80
2022/06/11 12:15:59;;;;;;;0.00;0.00;;;;;;;;;;4997010;28;20080;-81
2022/06/11 12:18:38;;;;;;;0.00;0.00;;;;;;;;;;4981132;28;20034;-80
2022/06/11 12:21:09;;;;;;;0.00;0.00;;;;;;;;;;4997088;28;20069;-80
2022/06/11 12:23:42;;;;;;;0.00;0.00;;;;;;;;;;4997375;28;20124;-81
2022/06/11 12:26:13;;;;;;;0.00;0.00;;;;;;;;;;4997004;28;20157;-81
2022/06/11 12:28:41;;;;;;;0.32;0.25;;;;;;;;;;4997386;28;20053;-80
2022/06/11 12:31:09;;;;;;;0.00;0.00;;;;;;;;;;4996741;28;20096;-81
2022/06/11 12:33:36;;;;;;;0.00;0.00;;;;;;;;;;4996937;28;20042;-79
2022/06/11 12:36:11;;;;;;;0.00;0.00;;;;;;;;;;4996775;28;20081;-80
2022/06/11 12:38:40;;;;;;;0.00;0.00;;;;;;;;;;4997343;28;20049;-81
2022/06/11 12:41:31;;;;;;;0.00;0.00;;;;;;;;;;4996735;28;20042;-81
2022/06/11 12:44:16;;;;;;;0.00;0.00;;;;;;;;;;5014342;28;20045;-81
2022/06/11 12:46:50;;;;;;;0.00;0.00;;;;;;;;;;4996521;28;20460;-80
2022/06/11 12:49:34;;;;;;;0.00;0.00;;;;;;;;;;4996828;28;20037;-81
2022/06/11 12:52:11;;;;;;;0.00;0.00;;;;;;;;;;4996397;28;20046;-81
2022/06/11 12:54:45;;;;;;;0.00;0.00;;;;;;;;;;4996750;28;20397;-81
2022/06/11 12:57:11;;;;;;;0.00;0.00;;;;;;;;;;4996777;28;20050;-81
2022/06/11 12:59:51;;;;;;;0.00;0.00;;;;;;;;;;4980596;28;20566;-80
2022/06/11 13:02:26;;;;;;;0.00;0.00;;;;;;;;;;4980262;28;20105;-81
2022/06/11 13:04:52;;;;;;;0.00;0.00;;;;;;;;;;4996409;28;20103;-81
2022/06/11 13:07:33;;;;;;;0.00;0.00;;;;;;;;;;4996541;28;20433;-80
2022/06/11 13:10:13;;;;;;;0.00;0.00;;;;;;;;;;4996615;28;20049;-80
2022/06/11 13:13:00;;;;;;;0.00;0.00;;;;;;;;;;4996139;28;20103;-81
2022/06/11 13:15:26;;;;;;;0.10;0.10;;;;;;;;;;5013706;28;20096;-80
2022/06/11 13:17:54;;;;;;;0.00;0.00;;;;;;;;;;4996127;28;20050;-81
2022/06/11 13:20:20;;;;;;;0.00;0.00;;;;;;;;;;4996154;28;20038;-81
2022/06/11 13:22:51;;;;;;;0.00;0.00;;;;;;;;;;4996330;28;20092;-80
2022/06/11 13:25:32;;;;;;;0.00;0.00;;;;;;;;;;5013841;28;20089;-80
2022/06/11 13:27:58;;;;;;;0.00;0.00;;;;;;;;;;5013735;28;20046;-81
2022/06/11 13:30:44;;;;;;;1.55;0.15;;;;;;;;;;4995970;28;20173;-80
2022/06/11 13:33:33;;;;;;;0.00;0.00;;;;;;;;;;4996020;28;20370;-81
2022/06/11 13:36:06;;;;;;;0.00;0.00;;;;;;;;;;5013604;28;20487;-80
2022/06/11 13:38:49;;;;;;;0.00;0.00;;;;;;;;;;4996633;28;20093;-80
2022/06/11 13:41:24;;;;;;;0.00;0.00;;;;;;;;;;4995998;28;20050;-80
2022/06/11 13:44:13;;;;;;;0.00;0.00;;;;;;;;;;5013854;28;20049;-81
2022/06/11 13:46:57;;;;;;;0.00;0.00;;;;;;;;;;4985633;28;20057;-81
2022/06/11 13:49:23;;;;;;;0.00;0.00;;;;;;;;;;4995767;28;20050;-81
2022/06/11 13:51:54;;;;;;;0.00;0.00;;;;;;;;;;4995576;28;20046;-81
2022/06/11 13:57:36;;;;;;;0.00;0.00;;;;;;;;;;4979865;28;20493;-81
2022/06/11 14:00:06;;;;;;;0.00;0.00;;;;;;;;;;4979385;28;20037;-81
2022/06/11 14:02:50;;;;;;;0.00;0.00;;;;;;;;;;5013199;28;20064;-81
2022/06/11 14:05:27;;;;;;;0.00;0.00;;;;;;;;;;5013337;28;20121;-81
2022/06/11 14:07:54;;;;;;;0.00;0.00;;;;;;;;;;4995248;28;20580;-80
2022/06/11 14:10:31;;;;;;;0.00;0.00;;;;;;;;;;4995440;28;20461;-81
2022/06/11 14:12:58;;;;;;;0.00;0.00;;;;;;;;;;4995241;28;20132;-81
2022/06/11 14:15:26;;;;;;;0.00;0.00;;;;;;;;;;4995218;28;20084;-81
2022/06/11 14:17:58;;;;;;;0.00;0.00;;;;;;;;;;4979063;28;20172;-81
2022/06/11 14:20:35;;;;;;;0.00;0.00;;;;;;;;;;4995446;28;20049;-81
2022/06/11 14:23:11;;;;;;;0.00;0.00;;;;;;;;;;4999240;28;20034;-81
2022/06/11 14:25:48;;;;;;;0.00;0.00;;;;;;;;;;4999437;28;20120;-80
2022/06/11 14:28:16;;;;;;;0.00;0.00;;;;;;;;;;4999221;28;20049;-80
2022/06/11 14:30:46;;;;;;;0.00;0.00;;;;;;;;;;4999419;28;20481;-80
2022/06/11 14:33:12;;;;;;;0.00;0.00;;;;;;;;;;4999274;28;20038;-80
2022/06/11 14:35:40;;;;;;;0.00;0.00;;;;;;;;;;4999181;28;20584;-80
2022/06/11 14:38:32;;;;;;;0.00;0.00;;;;;;;;;;5011857;28;20041;-80
2022/06/11 14:41:08;;;;;;;0.00;0.00;;;;;;;;;;5014765;28;20132;-82
2022/06/11 14:44:01;;;;;;;0.00;0.00;;;;;;;;;;5018417;28;20080;-81
2022/06/11 14:46:36;;;;;;;0.00;0.00;;;;;;;;;;5018940;28;20532;-80
2022/06/11 14:49:11;;;;;;;0.00;0.00;;;;;;;;;;5018430;28;20042;-80
2022/06/11 14:51:38;;;;;;;0.00;0.00;;;;;;;;;;5018444;28;20080;-80
2022/06/11 14:54:19;;;;;;;0.00;0.00;;;;;;;;;;5018141;28;20053;-79
2022/06/11 14:56:48;;;;;;;0.00;0.00;;;;;;;;;;5036436;28;20033;-80
2022/06/11 14:59:14;;;;;;;0.00;0.00;;;;;;;;;;5036087;28;20037;-80
2022/06/11 15:01:55;;;;;;;0.00;0.00;;;;;;;;;;5002301;28;20042;-80
2022/06/11 15:04:24;;;;;;;0.00;0.00;;;;;;;;;;5018080;28;20128;-80
2022/06/11 15:07:02;;;;;;;0.00;0.00;;;;;;;;;;5018544;28;20045;-80